< Typhoon 195320 1953 Season Typhoon 195322 >
Typhoon 195321 (NO-NAME)
General InformationTrack Information on Google Maps || Disaster Info.ResourceGoogle EarthGE AnimationAtom FeedGeoJSON
Detalied Best Track (Time Zone = UTC)
Year Month Day Hour Lat. Long. Pressure (hPa) Wind (kt) Class Image Chart
1953 11 22 06 4.4 147.3 1004 0 2 -- Chart
1953 11 22 12 4.4 146.6 1004 0 2 -- Chart
1953 11 22 18 4.5 145.8 1006 0 2 -- Chart
1953 11 23 00 4.5 145.2 1007 0 2 -- Chart
1953 11 23 06 4.5 144.4 1009 0 2 -- Chart
1953 11 23 12 4.9 143.6 1009 0 2 -- Chart
1953 11 23 18 5.4 143.0 1008 0 2 -- Chart
1953 11 24 00 5.9 142.2 1008 0 2 -- Chart
1953 11 24 06 7.4 136.3 1007 0 2 -- Chart
1953 11 24 12 8.5 135.6 1008 0 2 -- Chart
1953 11 24 18 9.7 134.8 1007 0 2 -- Chart
1953 11 25 00 11.0 134.0 1006 0 9 -- Chart
1953 11 25 06 11.3 133.3 1005 0 9 -- Chart
1953 11 25 12 11.5 132.9 1005 0 9 -- Chart
1953 11 25 18 11.8 132.3 1004 0 9 -- Chart
1953 11 26 00 12.2 131.8 1004 0 9 -- Chart
1953 11 26 06 12.8 131.3 1004 0 9 -- Chart
1953 11 26 12 13.7 131.2 1004 0 9 -- Chart
1953 11 26 18 14.7 131.3 1000 0 9 -- Chart
1953 11 27 00 15.5 131.4 1000 0 9 -- Chart
1953 11 27 06 17.2 132.3 998 0 9 -- Chart
1953 11 27 12 17.5 134.1 1000 0 9 -- Chart
1953 11 27 18 17.6 136.0 1000 0 9 -- Chart
1953 11 28 00 17.6 138.0 1000 0 9 -- Chart
1953 11 28 06 18.5 139.5 1000 0 9 -- Chart
Japan Meteorological Agency Best Track Data | Correction Date : 1989-06-01
< Typhoon 195320 1953 Season Typhoon 195322 >

Help